Time;durP1;ratioP1;P1;durP2;ratioP2;P2;SDS_P1;SDS_P2;PMS_P1;PMS_P2;Temp;Humidity;BMP_temperature;BMP_pressure;BME280_temperature;BME280_humidity;BME280_pressure;Samples;Min_cycle;Max_cycle;Signal;HPM_P1;HPM_P2
2023/06/20 00:01:22;;;;;;;18.10;10.93;;;20.00;99.90;;;;;;4920516;29;20110;-77
2023/06/20 00:03:48;;;;;;;19.70;10.75;;;19.90;99.90;;;;;;4937094;29;20027;-76
2023/06/20 00:06:14;;;;;;;18.15;10.90;;;19.90;99.90;;;;;;4937503;29;20028;-77
2023/06/20 00:08:40;;;;;;;15.35;10.15;;;19.90;99.90;;;;;;4944779;29;20106;-77
2023/06/20 00:11:06;;;;;;;20.38;9.85;;;19.90;99.90;;;;;;4956304;29;20043;-77
2023/06/20 00:13:31;;;;;;;16.15;10.80;;;19.90;99.90;;;;;;4955864;29;20481;-76
2023/06/20 00:15:57;;;;;;;19.10;11.25;;;19.90;99.90;;;;;;4956782;29;20113;-75
2023/06/20 00:18:24;;;;;;;17.45;10.55;;;19.80;99.90;;;;;;4956064;28;20028;-76
2023/06/20 00:20:53;;;;;;;17.45;10.02;;;19.80;99.90;;;;;;4955970;28;20027;-76
2023/06/20 00:23:21;;;;;;;17.65;10.55;;;19.80;99.90;;;;;;4956012;28;20042;-77
2023/06/20 00:25:48;;;;;;;17.58;11.25;;;19.70;99.90;;;;;;4952576;29;20476;-79
2023/06/20 00:28:17;;;;;;;19.15;10.93;;;19.70;99.90;;;;;;4943248;28;20542;-79
2023/06/20 00:30:44;;;;;;;20.10;12.02;;;19.70;99.90;;;;;;4954507;29;20031;-77
2023/06/20 00:33:10;;;;;;;16.58;11.07;;;19.80;99.90;;;;;;4938440;29;20035;-76
2023/06/20 00:35:36;;;;;;;18.33;10.73;;;19.80;99.90;;;;;;4938275;29;20027;-77
2023/06/20 00:38:02;;;;;;;19.67;9.27;;;19.80;99.90;;;;;;4955639;28;20031;-75
2023/06/20 00:40:28;;;;;;;17.13;11.45;;;19.80;99.90;;;;;;4955119;28;20027;-76
2023/06/20 00:42:54;;;;;;;15.88;9.82;;;19.80;99.90;;;;;;4938055;28;20039;-76
2023/06/20 00:45:26;;;;;;;17.60;10.30;;;19.70;99.90;;;;;;4937958;28;20448;-76
2023/06/20 00:47:53;;;;;;;17.13;9.93;;;19.70;99.90;;;;;;4938052;29;20035;-75
2023/06/20 00:50:19;;;;;;;19.80;10.63;;;19.70;99.90;;;;;;4938541;29;20035;-74
2023/06/20 00:52:46;;;;;;;18.67;11.18;;;19.60;99.90;;;;;;4949867;28;20397;-77
2023/06/20 00:55:12;;;;;;;18.67;11.45;;;19.40;99.90;;;;;;4946069;29;20035;-76
2023/06/20 00:57:42;;;;;;;16.98;11.65;;;19.50;99.90;;;;;;4954954;28;20028;-76
2023/06/20 01:00:12;;;;;;;21.27;12.35;;;19.40;99.90;;;;;;4955149;29;20039;-76
2023/06/20 01:02:38;;;;;;;20.13;10.88;;;19.40;99.90;;;;;;4955160;28;20113;-76
2023/06/20 01:05:04;;;;;;;18.05;10.85;;;19.30;99.90;;;;;;4955282;28;20063;-76
2023/06/20 01:07:52;;;;;;;20.92;10.80;;;19.30;99.90;;;;;;4953856;29;20023;-76
2023/06/20 01:10:43;;;;;;;16.33;10.68;;;19.20;99.90;;;;;;4950624;28;20146;-76
2023/06/20 01:13:47;;;;;;;17.20;11.35;;;19.30;99.90;;;;;;4947828;29;20038;-76
2023/06/20 01:16:25;;;;;;;20.92;10.98;;;19.20;99.90;;;;;;4843188;29;20051;-76
2023/06/20 01:19:36;;;;;;;22.52;12.75;;;19.20;99.90;;;;;;4858377;29;20025;-77
2023/06/20 01:22:12;;;;;;;20.15;10.88;;;19.20;99.90;;;;;;4827608;29;20049;-76
2023/06/20 01:24:51;;;;;;;22.10;11.27;;;19.20;99.90;;;;;;4843530;29;20403;-76
2023/06/20 01:27:28;;;;;;;20.10;10.77;;;19.10;99.90;;;;;;4837101;29;20497;-79
2023/06/20 01:30:15;;;;;;;20.70;12.38;;;19.00;99.90;;;;;;4857370;29;20053;-76
2023/06/20 01:32:46;;;;;;;18.83;10.70;;;19.00;99.90;;;;;;4858048;29;20069;-74
2023/06/20 01:35:18;;;;;;;19.20;11.88;;;19.00;99.90;;;;;;4857673;29;20176;-78
2023/06/20 01:37:46;;;;;;;;;;;19.00;99.90;;;;;;4858293;29;20110;-79
2023/06/20 01:40:17;;;;;;;19.08;11.68;;;19.00;99.90;;;;;;4855889;29;20332;-77
2023/06/20 01:42:46;;;;;;;18.73;12.20;;;19.00;99.90;;;;;;4857513;29;20048;-76
2023/06/20 01:45:13;;;;;;;19.10;11.77;;;19.00;99.90;;;;;;4842429;29;20025;-77
2023/06/20 01:47:40;;;;;;;19.45;11.05;;;19.00;99.90;;;;;;4857576;29;20358;-77
2023/06/20 01:50:08;;;;;;;20.27;10.38;;;19.00;99.90;;;;;;4857754;29;20021;-79
2023/06/20 01:52:36;;;;;;;16.83;10.38;;;19.00;99.90;;;;;;4900270;29;20078;-77
2023/06/20 01:55:04;;;;;;;19.23;11.15;;;19.00;99.90;;;;;;4954089;29;20353;-76
2023/06/20 01:57:36;;;;;;;19.20;10.35;;;19.10;99.90;;;;;;4936269;29;20078;-74
2023/06/20 02:00:07;;;;;;;30.58;11.77;;;19.00;99.90;;;;;;4933109;29;20079;-77
2023/06/20 02:02:39;;;;;;;25.45;10.38;;;19.00;99.90;;;;;;4950418;29;20058;-77
2023/06/20 02:05:07;;;;;;;17.08;10.20;;;19.10;99.90;;;;;;4953447;28;20027;-77
2023/06/20 02:07:34;;;;;;;19.02;10.90;;;19.00;99.90;;;;;;4931983;29;20020;-77
2023/06/20 02:10:03;;;;;;;18.48;10.43;;;19.00;99.90;;;;;;4936870;29;20039;-78
2023/06/20 02:12:30;;;;;;;19.35;10.45;;;19.00;99.90;;;;;;4954483;28;20035;-74
2023/06/20 02:14:57;;;;;;;17.75;11.35;;;19.00;99.90;;;;;;4936605;28;20031;-77
2023/06/20 02:17:30;;;;;;;17.02;10.82;;;19.00;99.90;;;;;;4937024;28;20479;-76
2023/06/20 02:19:56;;;;;;;17.73;10.55;;;19.00;99.90;;;;;;4936797;28;20043;-76
2023/06/20 02:22:25;;;;;;;17.77;10.25;;;18.90;99.90;;;;;;4954007;28;20054;-77
2023/06/20 02:24:54;;;;;;;15.60;10.88;;;18.90;99.90;;;;;;4954040;28;20125;-76
2023/06/20 02:27:21;;;;;;;19.88;10.65;;;19.00;99.90;;;;;;4936289;29;20035;-77
2023/06/20 02:29:51;;;;;;;19.85;11.85;;;18.90;99.90;;;;;;4953883;28;20523;-76
2023/06/20 02:32:19;;;;;;;20.77;12.23;;;18.90;99.90;;;;;;4936882;29;20086;-78
2023/06/20 02:34:47;;;;;;;20.95;11.55;;;18.90;99.90;;;;;;4936380;29;20023;-77
2023/06/20 02:37:14;;;;;;;15.55;10.73;;;18.80;99.90;;;;;;4953916;28;20034;-77
2023/06/20 02:39:40;;;;;;;17.38;10.90;;;18.80;99.90;;;;;;4936372;29;20047;-77
2023/06/20 02:42:06;;;;;;;16.88;10.73;;;18.90;99.90;;;;;;4953797;28;20086;-77
2023/06/20 02:44:32;;;;;;;16.42;10.43;;;18.90;99.90;;;;;;4953632;28;20028;-77
2023/06/20 02:47:02;;;;;;;20.50;12.23;;;18.90;99.90;;;;;;4936801;28;20101;-76
2023/06/20 02:49:30;;;;;;;17.63;10.38;;;18.90;99.90;;;;;;4953407;29;20031;-76
2023/06/20 02:52:15;;;;;;;17.08;10.88;;;18.90;99.90;;;;;;4955252;28;20498;-76
2023/06/20 02:54:48;;;;;;;18.60;11.75;;;18.80;99.90;;;;;;4956250;28;20066;-78
2023/06/20 02:57:17;;;;;;;18.52;9.70;;;18.90;99.90;;;;;;4936228;29;20051;-77
2023/06/20 02:59:48;;;;;;;17.10;11.00;;;18.90;99.90;;;;;;4936067;29;20031;-77
2023/06/20 03:02:17;;;;;;;18.58;12.35;;;18.80;99.90;;;;;;4953953;28;20394;-77
2023/06/20 03:04:46;;;;;;;30.95;17.15;;;18.80;99.90;;;;;;4956907;28;20027;-77
2023/06/20 03:07:13;;;;;;;24.70;15.65;;;18.80;99.90;;;;;;4940215;28;20050;-77
2023/06/20 03:09:40;;;;;;;22.42;15.48;;;18.70;99.90;;;;;;4957167;28;20403;-77
2023/06/20 03:12:07;;;;;;;22.50;14.10;;;18.80;99.90;;;;;;4940171;28;20126;-77
2023/06/20 03:14:33;;;;;;;19.27;13.95;;;18.80;99.90;;;;;;4957125;28;20356;-73
2023/06/20 03:17:00;;;;;;;20.95;12.48;;;18.80;99.90;;;;;;4940190;29;20086;-77
2023/06/20 03:19:26;;;;;;;20.38;12.88;;;18.90;99.90;;;;;;4939994;29;20039;-77
2023/06/20 03:21:54;;;;;;;18.65;12.63;;;19.00;99.90;;;;;;4939723;28;20046;-77
2023/06/20 03:24:20;;;;;;;18.17;12.13;;;19.00;99.90;;;;;;4957079;29;20089;-77
2023/06/20 03:26:45;;;;;;;21.50;12.18;;;19.10;99.90;;;;;;4955666;28;20126;-77
2023/06/20 03:29:11;;;;;;;20.20;12.88;;;19.20;99.90;;;;;;4957007;28;20027;-76
2023/06/20 03:31:39;;;;;;;20.05;12.30;;;19.30;99.90;;;;;;4939666;28;20034;-77
2023/06/20 03:34:05;;;;;;;19.65;11.88;;;19.30;99.90;;;;;;4939378;29;20036;-76
2023/06/20 03:36:31;;;;;;;21.88;11.23;;;19.40;99.90;;;;;;4955524;28;20379;-74
2023/06/20 03:38:57;;;;;;;16.70;11.07;;;19.50;99.90;;;;;;4956954;29;20024;-77
2023/06/20 03:41:24;;;;;;;17.38;11.68;;;19.60;99.90;;;;;;4939373;29;20455;-76
2023/06/20 03:43:50;;;;;;;20.35;10.93;;;19.80;99.90;;;;;;4950164;28;20146;-77
2023/06/20 03:46:16;;;;;;;18.20;11.90;;;20.40;99.90;;;;;;4939509;29;20059;-77
2023/06/20 03:48:42;;;;;;;23.08;12.45;;;20.80;99.90;;;;;;4955662;28;20067;-78
2023/06/20 03:51:08;;;;;;;17.27;11.40;;;21.10;99.90;;;;;;4939618;29;20023;-77
2023/06/20 03:53:34;;;;;;;17.80;11.93;;;21.50;99.90;;;;;;4955113;28;20042;-73
2023/06/20 03:56:02;;;;;;;19.98;10.85;;;21.90;99.90;;;;;;4939994;29;20134;-76
2023/06/20 03:58:29;;;;;;;16.00;10.77;;;22.30;99.90;;;;;;4936918;28;20062;-78
2023/06/20 04:00:56;;;;;;;16.20;10.85;;;22.50;99.90;;;;;;4956934;28;20063;-77
2023/06/20 04:03:22;;;;;;;17.73;10.68;;;22.90;99.90;;;;;;4939262;29;20470;-77
2023/06/20 04:05:48;;;;;;;16.80;9.77;;;23.20;99.90;;;;;;4956590;28;20066;-76
2023/06/20 04:08:13;;;;;;;16.55;9.98;;;23.70;99.90;;;;;;4955402;28;20365;-77
2023/06/20 04:10:39;;;;;;;15.63;9.85;;;23.80;99.90;;;;;;4955963;28;20030;-76
2023/06/20 04:13:05;;;;;;;18.77;9.48;;;24.10;99.90;;;;;;4956170;28;20039;-77
2023/06/20 04:15:31;;;;;;;14.52;9.30;;;24.50;99.90;;;;;;4953854;28;20349;-77
2023/06/20 04:17:57;;;;;;;14.00;9.68;;;25.10;99.90;;;;;;4951317;28;20027;-77
2023/06/20 04:20:23;;;;;;;15.52;9.75;;;25.00;99.90;;;;;;4939001;29;20040;-77
2023/06/20 04:22:48;;;;;;;15.60;9.45;;;24.80;99.90;;;;;;4939015;29;20028;-77
2023/06/20 04:25:15;;;;;;;20.08;9.70;;;25.20;99.90;;;;;;4938747;29;20411;-77
2023/06/20 04:27:44;;;;;;;17.33;9.77;;;25.40;99.90;;;;;;4955694;28;20098;-78
2023/06/20 04:30:11;;;;;;;14.32;9.32;;;25.50;99.90;;;;;;4954600;28;20034;-77
2023/06/20 04:32:39;;;;;;;14.32;9.73;;;25.60;99.90;;;;;;4938676;28;20038;-74
2023/06/20 04:35:07;;;;;;;19.52;9.43;;;25.50;99.90;;;;;;4938858;29;20035;-77
2023/06/20 04:37:33;;;;;;;14.65;10.18;;;25.50;99.90;;;;;;4941451;29;20170;-77
2023/06/20 04:40:02;;;;;;;14.98;9.63;;;26.00;99.90;;;;;;4946387;29;20032;-74
2023/06/20 04:42:30;;;;;;;15.73;10.13;;;26.00;99.90;;;;;;4938152;28;20035;-77
2023/06/20 04:44:56;;;;;;;14.77;9.00;;;26.80;99.70;;;;;;4938749;29;20035;-77
2023/06/20 04:47:22;;;;;;;19.45;10.48;;;27.30;98.90;;;;;;4955620;28;20023;-76
2023/06/20 04:49:47;;;;;;;19.27;10.60;;;27.60;97.40;;;;;;4948819;29;20027;-76
2023/06/20 04:52:13;;;;;;;20.08;10.90;;;27.60;98.20;;;;;;4937986;28;20395;-77
2023/06/20 04:54:39;;;;;;;16.67;9.73;;;27.70;97.60;;;;;;4946883;29;20041;-77
2023/06/20 04:57:05;;;;;;;17.13;10.93;;;27.40;97.00;;;;;;4955551;28;20023;-77
2023/06/20 04:59:32;;;;;;;15.05;9.95;;;27.10;97.10;;;;;;4955640;28;20046;-75
2023/06/20 05:01:58;;;;;;;16.92;10.60;;;26.20;97.70;;;;;;4937766;29;20035;-77
2023/06/20 05:04:23;;;;;;;16.15;9.98;;;25.80;99.40;;;;;;4954042;28;20093;-77
2023/06/20 05:06:49;;;;;;;15.93;10.32;;;25.70;99.90;;;;;;4922291;29;20023;-77
2023/06/20 05:09:16;;;;;;;15.38;10.10;;;25.50;99.90;;;;;;4953679;29;20059;-77
2023/06/20 05:11:42;;;;;;;17.23;11.57;;;25.40;99.90;;;;;;4954994;28;20031;-77
2023/06/20 05:14:08;;;;;;;17.83;11.82;;;25.40;99.90;;;;;;4955204;28;20559;-76
2023/06/20 05:16:34;;;;;;;17.63;10.60;;;25.20;99.90;;;;;;4955254;28;20031;-77
2023/06/20 05:19:00;;;;;;;16.63;10.20;;;25.30;99.90;;;;;;4955320;28;20047;-77
2023/06/20 05:21:26;;;;;;;17.45;10.75;;;25.40;99.90;;;;;;4955175;28;20404;-74
2023/06/20 05:23:51;;;;;;;15.65;10.27;;;25.40;99.90;;;;;;4954703;28;20034;-77
2023/06/20 05:26:17;;;;;;;18.35;9.80;;;25.40;99.90;;;;;;4954711;28;20056;-77
2023/06/20 05:28:43;;;;;;;14.93;10.30;;;25.40;99.90;;;;;;4954884;28;20490;-77
2023/06/20 05:31:11;;;;;;;30.83;10.82;;;25.30;99.90;;;;;;4954584;28;20019;-74
2023/06/20 05:33:37;;;;;;;17.15;10.80;;;25.50;99.90;;;;;;4954819;28;20622;-74
2023/06/20 05:36:04;;;;;;;20.30;11.75;;;25.70;99.90;;;;;;4937593;29;20031;-78
2023/06/20 05:38:31;;;;;;;17.70;11.00;;;25.90;99.90;;;;;;4954660;28;20035;-75
2023/06/20 05:41:00;;;;;;;20.80;12.27;;;25.80;99.90;;;;;;4954459;28;20102;-76
2023/06/20 05:43:26;;;;;;;16.85;10.85;;;26.30;99.90;;;;;;4954142;29;20082;-77
2023/06/20 05:45:51;;;;;;;14.73;9.15;;;26.20;99.90;;;;;;4954290;28;20027;-77
2023/06/20 05:48:17;;;;;;;15.73;9.27;;;26.20;99.90;;;;;;4954068;29;20402;-78
2023/06/20 05:50:43;;;;;;;15.88;9.10;;;26.30;99.90;;;;;;4954082;29;20019;-75
2023/06/20 05:53:09;;;;;;;18.27;9.98;;;26.00;99.90;;;;;;4954313;28;20035;-76
2023/06/20 05:55:35;;;;;;;15.77;8.95;;;26.30;99.90;;;;;;4954152;28;20026;-74
2023/06/20 05:58:00;;;;;;;15.18;8.93;;;26.20;99.90;;;;;;4954299;28;20387;-76
2023/06/20 06:00:26;;;;;;;13.15;8.93;;;26.30;99.90;;;;;;4954122;28;20031;-76
2023/06/20 06:02:52;;;;;;;14.77;9.38;;;26.50;99.90;;;;;;4954398;28;20035;-77
2023/06/20 06:05:18;;;;;;;17.40;8.80;;;26.40;99.90;;;;;;4954500;28;20543;-76
2023/06/20 06:07:44;;;;;;;14.30;9.13;;;26.60;99.90;;;;;;4949921;28;20035;-78
2023/06/20 06:10:09;;;;;;;16.35;9.65;;;26.80;99.90;;;;;;4955064;28;20395;-76
2023/06/20 06:12:36;;;;;;;15.35;9.07;;;26.80;99.90;;;;;;4954279;28;20023;-78
2023/06/20 06:15:06;;;;;;;15.32;8.23;;;27.00;99.90;;;;;;4953971;28;20030;-77
2023/06/20 06:17:32;;;;;;;17.33;8.55;;;26.80;99.10;;;;;;4954392;28;20027;-77
2023/06/20 06:19:58;;;;;;;14.05;8.00;;;26.80;99.60;;;;;;4953784;28;20392;-77
2023/06/20 06:22:24;;;;;;;14.23;8.35;;;26.80;99.90;;;;;;4954100;29;20047;-75
2023/06/20 06:24:53;;;;;;;14.43;9.45;;;26.60;99.90;;;;;;4953634;28;20031;-78
2023/06/20 06:27:19;;;;;;;16.52;9.35;;;26.90;99.90;;;;;;4954040;28;20033;-72
2023/06/20 06:29:45;;;;;;;17.40;9.45;;;27.10;99.90;;;;;;4953718;28;20049;-78
2023/06/20 06:32:11;;;;;;;15.02;8.38;;;27.10;99.90;;;;;;4954064;28;20463;-78
2023/06/20 06:34:38;;;;;;;14.98;8.23;;;27.20;99.20;;;;;;4953544;28;20015;-78
2023/06/20 06:37:04;;;;;;;15.93;8.35;;;27.20;98.30;;;;;;4953811;28;20034;-77
2023/06/20 06:39:30;;;;;;;15.73;9.25;;;27.20;98.00;;;;;;4952142;28;20067;-76
2023/06/20 06:41:56;;;;;;;15.30;9.57;;;27.40;98.60;;;;;;4953446;28;20066;-77
2023/06/20 06:44:23;;;;;;;13.80;8.73;;;27.40;99.90;;;;;;4935409;28;20053;-76
2023/06/20 06:46:48;;;;;;;16.67;8.88;;;27.50;99.00;;;;;;4951116;28;20031;-77
2023/06/20 06:49:14;;;;;;;17.27;8.43;;;27.50;98.60;;;;;;4952846;28;20057;-74
2023/06/20 06:51:40;;;;;;;13.77;8.73;;;27.40;97.60;;;;;;4953738;28;20024;-73
2023/06/20 06:54:06;;;;;;;18.63;9.35;;;27.70;99.50;;;;;;4954084;28;20020;-78
2023/06/20 06:56:32;;;;;;;13.50;8.95;;;27.60;98.30;;;;;;4953781;28;20037;-76
2023/06/20 06:59:00;;;;;;;14.15;8.75;;;27.60;98.70;;;;;;4953512;28;20082;-75
2023/06/20 07:01:28;;;;;;;15.63;9.57;;;27.70;99.00;;;;;;4949295;28;20105;-74
2023/06/20 07:03:54;;;;;;;15.70;9.15;;;27.90;98.90;;;;;;4936060;29;20043;-74
2023/06/20 07:06:20;;;;;;;19.90;10.52;;;28.10;98.80;;;;;;4953770;28;20023;-73
2023/06/20 07:08:46;;;;;;;15.85;9.30;;;28.20;97.90;;;;;;4952938;28;20557;-78
2023/06/20 07:11:12;;;;;;;13.98;9.25;;;28.20;96.50;;;;;;4953710;28;20503;-77
2023/06/20 07:13:38;;;;;;;11.27;8.00;;;28.30;99.20;;;;;;4953067;28;20042;-77
2023/06/20 07:16:04;;;;;;;11.80;8.32;;;28.40;97.70;;;;;;4953488;28;20387;-78
2023/06/20 07:18:30;;;;;;;13.45;8.85;;;28.70;99.10;;;;;;4953272;29;20036;-77
2023/06/20 07:20:57;;;;;;;14.32;9.57;;;28.80;96.00;;;;;;4953669;28;20020;-74
2023/06/20 07:23:23;;;;;;;13.20;8.73;;;29.00;96.40;;;;;;4953394;28;20043;-77
2023/06/20 07:25:49;;;;;;;17.10;8.77;;;28.80;96.80;;;;;;4953562;28;20126;-74
2023/06/20 07:28:15;;;;;;;13.35;8.60;;;29.00;96.90;;;;;;4952847;28;20483;-74
2023/06/20 07:30:40;;;;;;;15.02;8.90;;;29.00;96.50;;;;;;4952783;28;20034;-74
2023/06/20 07:33:06;;;;;;;14.45;8.88;;;28.90;96.30;;;;;;4953601;28;20034;-74
2023/06/20 07:35:33;;;;;;;16.48;8.95;;;29.10;96.00;;;;;;4953392;28;20023;-77
2023/06/20 07:37:59;;;;;;;12.18;8.30;;;29.30;99.10;;;;;;4953259;29;20039;-76
2023/06/20 07:40:24;;;;;;;14.80;8.80;;;29.50;94.80;;;;;;4952667;28;20034;-77
2023/06/20 07:42:50;;;;;;;13.60;8.75;;;29.60;95.20;;;;;;4953556;28;20061;-72
2023/06/20 07:45:16;;;;;;;15.55;8.73;;;29.60;97.40;;;;;;4952663;28;20094;-77
2023/06/20 07:47:42;;;;;;;12.00;8.00;;;29.60;94.80;;;;;;4953088;28;20070;-73
2023/06/20 07:50:08;;;;;;;14.98;8.55;;;29.70;95.40;;;;;;4953698;28;20043;-73
2023/06/20 07:52:34;;;;;;;12.82;8.57;;;29.80;92.60;;;;;;4956687;28;20022;-77
2023/06/20 07:55:04;;;;;;;12.35;7.85;;;30.00;93.80;;;;;;4955966;28;20451;-76
2023/06/20 07:57:30;;;;;;;16.35;8.90;;;29.90;95.20;;;;;;4956118;28;20074;-76
2023/06/20 07:59:56;;;;;;;18.52;10.02;;;29.80;92.30;;;;;;4956053;28;20057;-75
2023/06/20 08:02:21;;;;;;;15.90;8.65;;;29.60;94.30;;;;;;4955712;28;20059;-77
2023/06/20 08:04:48;;;;;;;15.90;8.23;;;29.70;93.90;;;;;;4956428;28;20035;-74
2023/06/20 08:07:14;;;;;;;14.52;8.23;;;30.00;93.70;;;;;;4956454;28;20375;-78
2023/06/20 08:09:40;;;;;;;16.60;8.25;;;30.10;94.20;;;;;;4956039;28;20051;-77
2023/06/20 08:12:06;;;;;;;13.13;8.30;;;30.30;93.70;;;;;;4949008;28;20434;-76
2023/06/20 08:14:32;;;;;;;15.10;8.93;;;30.40;92.70;;;;;;4955628;29;20027;-76
2023/06/20 08:16:58;;;;;;;12.13;7.22;;;30.20;92.80;;;;;;4942942;28;20077;-76
2023/06/20 08:19:24;;;;;;;11.25;7.10;;;30.70;92.30;;;;;;4955959;28;20378;-77
2023/06/20 08:21:50;;;;;;;13.63;7.93;;;30.60;92.30;;;;;;4955737;28;20027;-77
2023/06/20 08:24:16;;;;;;;11.60;8.13;;;30.60;92.00;;;;;;4955229;28;20031;-77
2023/06/20 08:26:41;;;;;;;13.48;7.97;;;30.30;91.80;;;;;;4956003;28;20023;-79
2023/06/20 08:29:08;;;;;;;17.52;7.25;;;30.70;91.80;;;;;;4955444;28;20778;-74
2023/06/20 08:31:37;;;;;;;15.68;7.78;;;30.60;92.40;;;;;;4943454;28;20390;-78
2023/06/20 08:34:04;;;;;;;15.40;7.72;;;30.60;91.50;;;;;;4955645;28;20110;-79
2023/06/20 08:36:30;;;;;;;15.80;8.88;;;30.60;91.10;;;;;;4956205;29;20114;-77
2023/06/20 08:38:56;;;;;;;13.77;8.30;;;30.70;91.60;;;;;;4955124;28;20028;-79
2023/06/20 08:41:26;;;;;;;12.63;7.47;;;30.70;89.60;;;;;;4955629;28;20046;-78
2023/06/20 08:43:52;;;;;;;10.60;7.50;;;30.80;89.90;;;;;;4955177;28;20039;-76
2023/06/20 08:46:18;;;;;;;17.38;8.07;;;31.20;91.10;;;;;;4955083;28;20430;-79
2023/06/20 08:48:46;;;;;;;12.90;7.45;;;31.00;91.20;;;;;;4955312;28;20034;-72
2023/06/20 08:51:16;;;;;;;13.98;8.13;;;31.10;90.20;;;;;;4954934;28;20034;-79
2023/06/20 08:53:46;;;;;;;13.30;7.60;;;30.80;90.40;;;;;;4955263;28;20038;-75
2023/06/20 08:56:14;;;;;;;10.80;7.03;;;31.10;90.10;;;;;;4955593;28;20476;-79
2023/06/20 08:58:40;;;;;;;10.20;6.82;;;31.00;90.40;;;;;;4955484;28;20378;-78
2023/06/20 09:01:06;;;;;;;14.38;7.63;;;31.10;90.90;;;;;;4954715;28;20099;-77
2023/06/20 09:03:33;;;;;;;10.15;7.20;;;31.00;90.10;;;;;;4947462;28;20082;-79
2023/06/20 09:05:58;;;;;;;11.70;7.53;;;30.90;87.00;;;;;;4945759;28;20026;-77
2023/06/20 09:08:37;;;;;;;19.13;7.28;;;30.90;90.20;;;;;;4955022;28;20047;-78
2023/06/20 09:11:12;;;;;;;12.90;7.70;;;30.80;87.70;;;;;;4955287;28;20055;-74
2023/06/20 09:13:38;;;;;;;11.23;6.78;;;30.80;90.80;;;;;;4955842;28;20031;-76
2023/06/20 09:16:13;;;;;;;11.73;7.78;;;30.70;91.20;;;;;;4955107;29;20455;-77
2023/06/20 09:18:40;;;;;;;14.10;8.18;;;30.90;90.40;;;;;;4943323;29;20096;-80
2023/06/20 09:21:13;;;;;;;11.73;7.15;;;31.10;88.20;;;;;;4954671;28;20467;-77
2023/06/20 09:23:39;;;;;;;13.07;7.38;;;31.10;90.30;;;;;;4955052;29;20122;-78
2023/06/20 09:26:16;;;;;;;12.90;7.57;;;31.20;90.70;;;;;;4954486;28;20102;-76
2023/06/20 09:28:43;;;;;;;12.15;6.97;;;31.00;90.20;;;;;;4955248;28;20027;-76
2023/06/20 09:31:09;;;;;;;11.95;7.07;;;30.90;90.00;;;;;;4954566;28;20027;-77
2023/06/20 09:33:38;;;;;;;10.80;7.82;;;30.90;85.90;;;;;;4954740;28;20035;-77
2023/06/20 09:36:15;;;;;;;14.23;7.65;;;31.20;87.60;;;;;;4947321;29;20391;-75
2023/06/20 09:38:45;;;;;;;12.90;7.30;;;31.20;87.80;;;;;;4954936;28;20055;-74
2023/06/20 09:41:17;;;;;;;12.98;7.60;;;31.20;88.50;;;;;;4954512;28;20015;-78
2023/06/20 09:43:44;;;;;;;12.02;6.95;;;31.00;87.40;;;;;;4954307;28;20059;-75
2023/06/20 09:46:10;;;;;;;13.55;8.07;;;30.90;85.10;;;;;;4954154;28;20387;-78
2023/06/20 09:48:37;;;;;;;10.55;6.90;;;31.10;87.20;;;;;;4954220;28;20060;-77
2023/06/20 09:51:04;;;;;;;13.98;7.80;;;31.10;87.10;;;;;;4951313;28;20031;-76
2023/06/20 09:53:44;;;;;;;15.02;6.95;;;31.00;87.90;;;;;;4954455;28;20042;-78
2023/06/20 09:56:11;;;;;;;11.80;7.63;;;31.10;86.60;;;;;;4930662;29;20051;-74
2023/06/20 09:58:44;;;;;;;10.57;6.90;;;31.20;83.90;;;;;;4937034;28;20090;-79
2023/06/20 10:01:14;;;;;;;10.48;7.28;;;31.30;85.30;;;;;;4953775;29;20371;-74
2023/06/20 10:03:41;;;;;;;12.30;6.43;;;31.30;87.80;;;;;;4953408;28;20051;-77
2023/06/20 10:06:08;;;;;;;13.40;6.35;;;31.20;87.80;;;;;;4954231;28;20534;-73
2023/06/20 10:08:35;;;;;;;10.00;6.65;;;31.10;83.90;;;;;;4955132;28;20050;-79
2023/06/20 10:11:01;;;;;;;11.63;6.70;;;31.20;83.30;;;;;;4954134;28;20032;-78
2023/06/20 10:13:28;;;;;;;11.75;6.15;;;31.20;82.80;;;;;;4953479;28;20031;-78
2023/06/20 10:15:54;;;;;;;11.80;6.88;;;31.40;83.60;;;;;;4954208;28;20027;-74
2023/06/20 10:18:32;;;;;;;10.68;6.72;;;31.20;80.60;;;;;;4953623;28;20027;-78
2023/06/20 10:21:01;;;;;;;10.65;6.30;;;31.10;83.30;;;;;;4948840;28;20498;-76
2023/06/20 10:23:31;;;;;;;9.07;5.90;;;30.90;85.40;;;;;;4942642;28;20043;-78
2023/06/20 10:26:02;;;;;;;11.02;7.15;;;30.90;82.60;;;;;;4953832;28;20020;-78
2023/06/20 10:28:28;;;;;;;11.27;6.40;;;31.20;86.00;;;;;;4954015;28;20094;-78
2023/06/20 10:30:55;;;;;;;12.25;6.30;;;31.20;85.10;;;;;;4953091;28;20479;-80
2023/06/20 10:33:34;;;;;;;10.77;6.03;;;31.20;85.40;;;;;;4936270;29;20605;-77
2023/06/20 10:36:04;;;;;;;9.23;6.60;;;31.10;83.30;;;;;;4947980;29;20028;-76
2023/06/20 10:38:38;;;;;;;11.82;6.82;;;31.00;82.40;;;;;;4953300;28;20501;-78
2023/06/20 10:41:15;;;;;;;10.88;7.25;;;31.10;82.70;;;;;;4953665;29;20102;-81
2023/06/20 10:43:47;;;;;;;10.00;6.20;;;31.20;85.50;;;;;;4950673;28;20040;-76
2023/06/20 10:46:13;;;;;;;8.18;6.00;;;30.90;82.60;;;;;;4953695;28;20042;-74
2023/06/20 10:48:39;;;;;;;11.50;7.78;;;30.90;82.60;;;;;;4953676;28;20027;-73
2023/06/20 10:51:05;;;;;;;12.25;7.50;;;30.90;84.00;;;;;;4942595;28;20035;-78
2023/06/20 10:53:32;;;;;;;13.57;7.10;;;31.10;84.00;;;;;;4951960;28;20042;-75
2023/06/20 10:55:58;;;;;;;10.38;6.43;;;31.10;82.60;;;;;;4946047;28;20106;-78
2023/06/20 10:58:23;;;;;;;11.23;6.70;;;31.10;81.50;;;;;;4953549;28;20115;-74
2023/06/20 11:00:53;;;;;;;15.68;7.82;;;31.20;80.10;;;;;;4953549;28;20110;-76
2023/06/20 11:03:21;;;;;;;9.32;6.13;;;31.40;82.40;;;;;;4953423;28;20035;-77
2023/06/20 11:05:51;;;;;;;10.45;7.10;;;31.50;83.10;;;;;;4953983;28;20045;-79
2023/06/20 11:08:27;;;;;;;9.88;6.07;;;31.50;82.40;;;;;;4953467;28;20083;-74
2023/06/20 11:10:54;;;;;;;10.07;7.03;;;31.60;83.40;;;;;;4953587;28;20067;-77
2023/06/20 11:13:21;;;;;;;10.07;6.70;;;31.50;83.70;;;;;;4953940;28;20078;-77
2023/06/20 11:15:47;;;;;;;12.05;6.93;;;31.50;82.70;;;;;;4953537;28;20119;-77
2023/06/20 11:18:13;;;;;;;9.05;7.05;;;31.50;81.40;;;;;;4953384;28;20106;-79
2023/06/20 11:20:41;;;;;;;10.63;6.40;;;31.80;82.90;;;;;;4953450;28;20452;-74
2023/06/20 11:23:10;;;;;;;8.68;6.20;;;31.80;85.40;;;;;;4953636;28;20110;-79
2023/06/20 11:25:38;;;;;;;12.27;7.35;;;31.80;81.80;;;;;;4956546;28;20102;-78
2023/06/20 11:28:08;;;;;;;11.63;6.50;;;31.70;82.40;;;;;;4957647;28;20387;-79
2023/06/20 11:30:37;;;;;;;10.60;6.63;;;31.40;80.10;;;;;;4957066;28;20475;-78
2023/06/20 11:33:13;;;;;;;11.43;6.75;;;31.50;82.60;;;;;;4956822;29;20023;-78
2023/06/20 11:35:52;;;;;;;10.23;6.43;;;31.40;80.30;;;;;;4956991;28;20031;-79
2023/06/20 11:38:20;;;;;;;16.38;6.88;;;31.50;82.80;;;;;;4957248;28;20031;-75
2023/06/20 11:41:08;;;;;;;9.43;6.25;;;31.40;78.60;;;;;;4957020;28;20086;-76
2023/06/20 11:43:39;;;;;;;11.00;6.60;;;31.30;78.60;;;;;;4957159;28;20039;-78
2023/06/20 11:46:06;;;;;;;10.68;6.75;;;31.20;80.00;;;;;;4956811;28;20023;-79
2023/06/20 11:48:32;;;;;;;10.23;5.75;;;31.30;78.70;;;;;;4956732;29;20484;-78
2023/06/20 11:51:00;;;;;;;11.48;5.97;;;31.30;78.60;;;;;;4956522;28;20027;-78
2023/06/20 11:53:34;;;;;;;9.95;5.85;;;31.40;77.40;;;;;;4956622;28;20027;-78
2023/06/20 11:56:06;;;;;;;10.30;6.47;;;31.40;77.50;;;;;;4944847;28;20360;-73
2023/06/20 11:58:43;;;;;;;8.18;5.93;;;31.40;78.90;;;;;;4956695;28;20035;-77
2023/06/20 12:01:17;;;;;;;8.82;5.28;;;31.30;76.10;;;;;;4956749;28;20042;-72
2023/06/20 12:03:44;;;;;;;9.30;6.00;;;31.30;75.80;;;;;;4955974;28;20063;-73
2023/06/20 12:06:27;;;;;;;9.13;5.78;;;31.30;77.20;;;;;;4956947;28;20023;-76
2023/06/20 12:08:54;;;;;;;10.13;6.10;;;31.10;78.70;;;;;;4944149;28;20047;-78
2023/06/20 12:11:20;;;;;;;8.27;5.43;;;31.30;74.40;;;;;;4956071;28;20126;-73
2023/06/20 12:13:47;;;;;;;14.98;6.07;;;31.40;74.40;;;;;;4956710;28;20491;-77
2023/06/20 12:16:15;;;;;;;8.75;5.65;;;31.20;77.90;;;;;;4956104;28;20044;-75
2023/06/20 12:18:42;;;;;;;10.07;5.43;;;31.20;77.60;;;;;;4956397;29;20062;-77
2023/06/20 12:21:07;;;;;;;8.63;5.50;;;31.10;75.00;;;;;;4955784;28;20030;-78
2023/06/20 12:23:34;;;;;;;9.32;5.75;;;31.20;76.20;;;;;;4956260;28;20051;-73
2023/06/20 12:26:00;;;;;;;11.23;6.03;;;31.10;78.80;;;;;;4955837;28;20463;-79
2023/06/20 12:28:26;;;;;;;9.68;5.88;;;31.10;75.50;;;;;;4956109;28;20032;-80
2023/06/20 12:30:51;;;;;;;7.90;5.72;;;31.20;76.60;;;;;;4956125;28;20091;-74
2023/06/20 12:33:18;;;;;;;9.73;5.47;;;31.50;77.70;;;;;;4955766;28;20027;-77
2023/06/20 12:35:43;;;;;;;9.80;6.13;;;31.50;79.20;;;;;;4955273;28;20518;-79
2023/06/20 12:38:10;;;;;;;7.25;5.30;;;31.50;75.40;;;;;;4956013;28;20114;-79